Moyers, West Virginia
Current Conditions -  °F | °C
As of 7:35 AM on Monday 26 Jan 2015 (Local Time) from KVBW Reporting Station
Overcast Overcast  
Wind Chill: 33°   Ceiling: 1000
Heat Index: 33°   Visibility: 4mi
Dew Point: 32°   Wind: 0mph
Humidity: 98%   Direction: NA
Pressure: 29.69"   Gusts: NA
Location:  38.5003°N, 79.3229°W
Report Text: KVBW 261235Z AUTO 00000KT 4SM OVC010 00/00 A2969 RMK AO2 P0001 T00030000
Loading
Personal Weather Stations






























Interactive Weather Map New forecast layout! Learn more

10-Day Weather Forecast

Advertisements
Track Severe Weather on mobile